sensor_id;sensor_type;location;lat;lon;timestamp;temperature;humidity
58554;DHT22;48119;53.218;6.576;2023-04-01T00:00:52;12.90;99.90
58554;DHT22;48119;53.218;6.576;2023-04-01T00:03:19;12.90;99.90
58554;DHT22;48119;53.218;6.576;2023-04-01T00:05:46;12.90;99.90
58554;DHT22;48119;53.218;6.576;2023-04-01T00:08:12;12.80;99.90
58554;DHT22;48119;53.218;6.576;2023-04-01T00:10:38;12.80;99.90
58554;DHT22;48119;53.218;6.576;2023-04-01T00:13:04;12.80;99.90
58554;DHT22;48119;53.218;6.576;2023-04-01T00:15:31;12.80;99.90
58554;DHT22;48119;53.218;6.576;2023-04-01T00:17:56;12.80;99.90
58554;DHT22;48119;53.218;6.576;2023-04-01T00:20:22;12.80;99.90
58554;DHT22;48119;53.218;6.576;2023-04-01T00:22:48;12.80;99.90
58554;DHT22;48119;53.218;6.576;2023-04-01T00:25:14;12.80;99.90
58554;DHT22;48119;53.218;6.576;2023-04-01T00:27:41;12.80;99.90
58554;DHT22;48119;53.218;6.576;2023-04-01T00:30:08;12.80;99.90
58554;DHT22;48119;53.218;6.576;2023-04-01T00:32:34;12.80;99.90
58554;DHT22;48119;53.218;6.576;2023-04-01T00:35:00;12.80;99.90
58554;DHT22;48119;53.218;6.576;2023-04-01T00:37:27;12.80;99.90
58554;DHT22;48119;53.218;6.576;2023-04-01T00:39:53;12.80;99.90
58554;DHT22;48119;53.218;6.576;2023-04-01T00:42:19;12.80;99.90
58554;DHT22;48119;53.218;6.576;2023-04-01T00:44:53;12.90;99.90
58554;DHT22;48119;53.218;6.576;2023-04-01T00:47:19;12.90;99.90
58554;DHT22;48119;53.218;6.576;2023-04-01T00:49:48;12.90;99.90
58554;DHT22;48119;53.218;6.576;2023-04-01T00:52:17;12.80;99.90
58554;DHT22;48119;53.218;6.576;2023-04-01T00:54:47;12.90;99.90
58554;DHT22;48119;53.218;6.576;2023-04-01T00:57:29;12.90;99.90
58554;DHT22;48119;53.218;6.576;2023-04-01T00:59:56;12.90;99.90
58554;DHT22;48119;53.218;6.576;2023-04-01T01:02:22;12.80;99.90
58554;DHT22;48119;53.218;6.576;2023-04-01T01:04:48;12.80;99.90
58554;DHT22;48119;53.218;6.576;2023-04-01T01:10:12;12.80;99.90
58554;DHT22;48119;53.218;6.576;2023-04-01T01:36:32;12.90;99.90
58554;DHT22;48119;53.218;6.576;2023-04-01T01:39:03;12.90;99.90
58554;DHT22;48119;53.218;6.576;2023-04-01T01:41:31;12.80;99.90
58554;DHT22;48119;53.218;6.576;2023-04-01T01:43:59;12.80;99.90
58554;DHT22;48119;53.218;6.576;2023-04-01T01:46:29;12.80;99.90
58554;DHT22;48119;53.218;6.576;2023-04-01T01:48:56;12.80;99.90
58554;DHT22;48119;53.218;6.576;2023-04-01T01:51:23;12.80;99.90
58554;DHT22;48119;53.218;6.576;2023-04-01T01:53:49;12.80;99.90
58554;DHT22;48119;53.218;6.576;2023-04-01T01:56:17;12.80;99.90
58554;DHT22;48119;53.218;6.576;2023-04-01T01:58:47;12.90;99.90
58554;DHT22;48119;53.218;6.576;2023-04-01T02:01:16;12.90;99.90
58554;DHT22;48119;53.218;6.576;2023-04-01T02:03:43;12.90;99.90
58554;DHT22;48119;53.218;6.576;2023-04-01T02:06:13;12.90;99.90
58554;DHT22;48119;53.218;6.576;2023-04-01T02:08:45;12.90;99.90
58554;DHT22;48119;53.218;6.576;2023-04-01T02:11:15;12.90;99.90
58554;DHT22;48119;53.218;6.576;2023-04-01T02:13:50;12.90;99.90
58554;DHT22;48119;53.218;6.576;2023-04-01T02:16:23;12.80;99.90
58554;DHT22;48119;53.218;6.576;2023-04-01T02:18:53;12.80;99.90
58554;DHT22;48119;53.218;6.576;2023-04-01T02:21:22;12.80;99.90
58554;DHT22;48119;53.218;6.576;2023-04-01T02:23:50;12.80;99.90
58554;DHT22;48119;53.218;6.576;2023-04-01T02:26:18;12.80;99.90
58554;DHT22;48119;53.218;6.576;2023-04-01T02:28:46;12.80;99.90
58554;DHT22;48119;53.218;6.576;2023-04-01T02:31:14;12.80;99.90
58554;DHT22;48119;53.218;6.576;2023-04-01T02:33:42;12.80;99.90
58554;DHT22;48119;53.218;6.576;2023-04-01T02:36:13;12.80;99.90
58554;DHT22;48119;53.218;6.576;2023-04-01T02:38:58;12.80;99.90
58554;DHT22;48119;53.218;6.576;2023-04-01T02:41:31;12.80;99.90
58554;DHT22;48119;53.218;6.576;2023-04-01T02:43:57;12.80;99.90
58554;DHT22;48119;53.218;6.576;2023-04-01T02:47:00;12.80;99.90
58554;DHT22;48119;53.218;6.576;2023-04-01T02:49:56;12.80;99.90
58554;DHT22;48119;53.218;6.576;2023-04-01T02:52:26;12.80;99.90
58554;DHT22;48119;53.218;6.576;2023-04-01T02:54:53;12.80;99.90
58554;DHT22;48119;53.218;6.576;2023-04-01T02:57:18;12.80;99.90
58554;DHT22;48119;53.218;6.576;2023-04-01T02:59:45;12.80;99.90
58554;DHT22;48119;53.218;6.576;2023-04-01T03:02:11;12.80;99.90
58554;DHT22;48119;53.218;6.576;2023-04-01T03:04:37;12.80;99.90
58554;DHT22;48119;53.218;6.576;2023-04-01T03:07:03;12.70;99.90
58554;DHT22;48119;53.218;6.576;2023-04-01T03:09:28;12.70;99.90
58554;DHT22;48119;53.218;6.576;2023-04-01T03:11:55;12.70;99.90
58554;DHT22;48119;53.218;6.576;2023-04-01T03:14:20;12.70;99.90
58554;DHT22;48119;53.218;6.576;2023-04-01T03:16:46;12.70;99.90
58554;DHT22;48119;53.218;6.576;2023-04-01T03:19:12;12.70;99.90
58554;DHT22;48119;53.218;6.576;2023-04-01T03:21:38;12.70;99.90
58554;DHT22;48119;53.218;6.576;2023-04-01T03:24:05;12.70;99.90
58554;DHT22;48119;53.218;6.576;2023-04-01T03:26:31;12.70;99.90
58554;DHT22;48119;53.218;6.576;2023-04-01T03:28:57;12.70;99.90
58554;DHT22;48119;53.218;6.576;2023-04-01T03:31:23;12.70;99.90
58554;DHT22;48119;53.218;6.576;2023-04-01T03:33:50;12.60;99.90
58554;DHT22;48119;53.218;6.576;2023-04-01T03:36:16;12.60;99.90
58554;DHT22;48119;53.218;6.576;2023-04-01T03:38:43;12.60;99.90
58554;DHT22;48119;53.218;6.576;2023-04-01T03:41:18;12.60;99.90
58554;DHT22;48119;53.218;6.576;2023-04-01T03:43:44;12.60;99.90
58554;DHT22;48119;53.218;6.576;2023-04-01T03:46:10;12.60;99.90
58554;DHT22;48119;53.218;6.576;2023-04-01T03:48:36;12.60;99.90
58554;DHT22;48119;53.218;6.576;2023-04-01T03:51:06;12.60;99.90
58554;DHT22;48119;53.218;6.576;2023-04-01T03:53:32;12.60;99.90
58554;DHT22;48119;53.218;6.576;2023-04-01T03:55:58;12.60;99.90
58554;DHT22;48119;53.218;6.576;2023-04-01T03:58:24;12.60;99.90
58554;DHT22;48119;53.218;6.576;2023-04-01T04:00:50;12.60;99.90
58554;DHT22;48119;53.218;6.576;2023-04-01T04:03:15;12.60;99.90
58554;DHT22;48119;53.218;6.576;2023-04-01T04:05:48;12.60;99.90
58554;DHT22;48119;53.218;6.576;2023-04-01T04:08:15;12.60;99.90
58554;DHT22;48119;53.218;6.576;2023-04-01T04:10:43;12.60;99.90
58554;DHT22;48119;53.218;6.576;2023-04-01T04:13:09;12.60;99.90
58554;DHT22;48119;53.218;6.576;2023-04-01T04:15:34;12.60;99.90
58554;DHT22;48119;53.218;6.576;2023-04-01T04:18:00;12.60;99.90
58554;DHT22;48119;53.218;6.576;2023-04-01T04:20:26;12.50;99.90
58554;DHT22;48119;53.218;6.576;2023-04-01T04:22:52;12.60;99.90
58554;DHT22;48119;53.218;6.576;2023-04-01T04:25:18;12.50;99.90
58554;DHT22;48119;53.218;6.576;2023-04-01T04:27:43;12.60;99.90
58554;DHT22;48119;53.218;6.576;2023-04-01T04:30:09;12.50;99.90
58554;DHT22;48119;53.218;6.576;2023-04-01T04:32:35;12.50;99.90
58554;DHT22;48119;53.218;6.576;2023-04-01T04:35:01;12.50;99.90
58554;DHT22;48119;53.218;6.576;2023-04-01T04:37:28;12.50;99.90
58554;DHT22;48119;53.218;6.576;2023-04-01T04:39:53;12.50;99.90
58554;DHT22;48119;53.218;6.576;2023-04-01T04:42:19;12.50;99.90
58554;DHT22;48119;53.218;6.576;2023-04-01T04:44:45;12.50;99.90
58554;DHT22;48119;53.218;6.576;2023-04-01T04:47:11;12.50;99.90
58554;DHT22;48119;53.218;6.576;2023-04-01T04:49:36;12.50;99.90
58554;DHT22;48119;53.218;6.576;2023-04-01T04:52:02;12.50;99.90
58554;DHT22;48119;53.218;6.576;2023-04-01T04:54:28;12.50;99.90
58554;DHT22;48119;53.218;6.576;2023-04-01T04:56:55;12.50;99.90
58554;DHT22;48119;53.218;6.576;2023-04-01T04:59:20;12.50;99.90
58554;DHT22;48119;53.218;6.576;2023-04-01T05:01:46;12.50;99.90
58554;DHT22;48119;53.218;6.576;2023-04-01T05:04:15;12.50;99.90
58554;DHT22;48119;53.218;6.576;2023-04-01T05:06:42;12.50;99.90
58554;DHT22;48119;53.218;6.576;2023-04-01T05:09:09;12.50;99.90
58554;DHT22;48119;53.218;6.576;2023-04-01T05:11:35;12.50;99.90
58554;DHT22;48119;53.218;6.576;2023-04-01T05:14:01;12.50;99.90
58554;DHT22;48119;53.218;6.576;2023-04-01T05:16:26;12.50;99.90
58554;DHT22;48119;53.218;6.576;2023-04-01T05:18:52;12.40;99.90
58554;DHT22;48119;53.218;6.576;2023-04-01T05:21:18;12.50;99.90
58554;DHT22;48119;53.218;6.576;2023-04-01T05:23:45;12.50;99.90
58554;DHT22;48119;53.218;6.576;2023-04-01T05:26:13;12.50;99.90
58554;DHT22;48119;53.218;6.576;2023-04-01T05:28:39;12.50;99.90
58554;DHT22;48119;53.218;6.576;2023-04-01T05:31:06;12.50;99.90
58554;DHT22;48119;53.218;6.576;2023-04-01T05:33:33;12.50;99.90
58554;DHT22;48119;53.218;6.576;2023-04-01T05:36:14;12.40;99.90
58554;DHT22;48119;53.218;6.576;2023-04-01T05:38:40;12.50;99.90
58554;DHT22;48119;53.218;6.576;2023-04-01T05:41:08;12.50;99.90
58554;DHT22;48119;53.218;6.576;2023-04-01T05:43:38;12.50;99.90
58554;DHT22;48119;53.218;6.576;2023-04-01T05:46:04;12.50;99.90
58554;DHT22;48119;53.218;6.576;2023-04-01T05:48:29;12.50;99.90
58554;DHT22;48119;53.218;6.576;2023-04-01T05:50:55;12.50;99.90
58554;DHT22;48119;53.218;6.576;2023-04-01T05:53:21;12.50;99.90
58554;DHT22;48119;53.218;6.576;2023-04-01T05:55:48;12.50;99.90
58554;DHT22;48119;53.218;6.576;2023-04-01T05:58:13;12.50;99.90
58554;DHT22;48119;53.218;6.576;2023-04-01T06:00:39;12.50;99.90
58554;DHT22;48119;53.218;6.576;2023-04-01T06:03:05;12.50;99.90
58554;DHT22;48119;53.218;6.576;2023-04-01T06:05:41;12.50;99.90
58554;DHT22;48119;53.218;6.576;2023-04-01T06:08:13;12.50;99.90
58554;DHT22;48119;53.218;6.576;2023-04-01T06:16:39;12.50;99.90
58554;DHT22;48119;53.218;6.576;2023-04-01T06:19:42;12.50;99.90
58554;DHT22;48119;53.218;6.576;2023-04-01T06:22:29;12.50;99.90
58554;DHT22;48119;53.218;6.576;2023-04-01T06:25:28;12.50;99.90
58554;DHT22;48119;53.218;6.576;2023-04-01T06:28:11;12.50;99.90
58554;DHT22;48119;53.218;6.576;2023-04-01T06:36:11;12.50;99.90
58554;DHT22;48119;53.218;6.576;2023-04-01T06:44:54;12.50;99.90
58554;DHT22;48119;53.218;6.576;2023-04-01T06:47:02;12.50;99.90
58554;DHT22;48119;53.218;6.576;2023-04-01T06:49:55;12.50;99.90
58554;DHT22;48119;53.218;6.576;2023-04-01T06:57:45;12.50;99.90
58554;DHT22;48119;53.218;6.576;2023-04-01T07:00:47;12.50;99.90
58554;DHT22;48119;53.218;6.576;2023-04-01T07:06:01;12.50;99.90
58554;DHT22;48119;53.218;6.576;2023-04-01T07:08:29;12.50;99.90
58554;DHT22;48119;53.218;6.576;2023-04-01T07:11:05;12.50;99.90
58554;DHT22;48119;53.218;6.576;2023-04-01T07:16:25;12.50;99.90
58554;DHT22;48119;53.218;6.576;2023-04-01T07:19:29;12.50;99.90
58554;DHT22;48119;53.218;6.576;2023-04-01T07:22:05;12.50;99.90
58554;DHT22;48119;53.218;6.576;2023-04-01T07:24:37;12.50;99.90
58554;DHT22;48119;53.218;6.576;2023-04-01T07:27:08;12.50;99.90
58554;DHT22;48119;53.218;6.576;2023-04-01T07:29:35;12.60;99.90
58554;DHT22;48119;53.218;6.576;2023-04-01T07:38:08;12.60;99.90
58554;DHT22;48119;53.218;6.576;2023-04-01T07:46:13;12.60;99.90
58554;DHT22;48119;53.218;6.576;2023-04-01T07:51:31;12.60;99.90
58554;DHT22;48119;53.218;6.576;2023-04-01T07:59:03;12.60;99.90
58554;DHT22;48119;53.218;6.576;2023-04-01T08:07:20;12.60;99.90
58554;DHT22;48119;53.218;6.576;2023-04-01T08:10:41;12.60;99.90
58554;DHT22;48119;53.218;6.576;2023-04-01T08:12:51;12.60;99.90
58554;DHT22;48119;53.218;6.576;2023-04-01T08:21:28;12.70;99.90
58554;DHT22;48119;53.218;6.576;2023-04-01T08:23:57;12.70;99.90
58554;DHT22;48119;53.218;6.576;2023-04-01T08:26:30;12.70;99.90
58554;DHT22;48119;53.218;6.576;2023-04-01T08:29:18;12.70;99.90
58554;DHT22;48119;53.218;6.576;2023-04-01T08:34:24;12.80;99.90
58554;DHT22;48119;53.218;6.576;2023-04-01T08:37:01;12.80;99.90
58554;DHT22;48119;53.218;6.576;2023-04-01T08:39:35;12.80;99.90
58554;DHT22;48119;53.218;6.576;2023-04-01T08:47:58;12.80;99.90
58554;DHT22;48119;53.218;6.576;2023-04-01T08:50:52;12.90;99.90
58554;DHT22;48119;53.218;6.576;2023-04-01T08:53:47;12.90;99.90
58554;DHT22;48119;53.218;6.576;2023-04-01T08:56:40;12.90;99.90
58554;DHT22;48119;53.218;6.576;2023-04-01T08:59:14;12.90;99.90
58554;DHT22;48119;53.218;6.576;2023-04-01T09:24:30;12.50;99.90
58554;DHT22;48119;53.218;6.576;2023-04-01T09:27:36;12.50;99.90
58554;DHT22;48119;53.218;6.576;2023-04-01T09:35:45;12.40;99.90
58554;DHT22;48119;53.218;6.576;2023-04-01T09:41:18;12.30;99.90
58554;DHT22;48119;53.218;6.576;2023-04-01T09:43:58;12.30;99.90
58554;DHT22;48119;53.218;6.576;2023-04-01T09:49:13;12.30;99.90
58554;DHT22;48119;53.218;6.576;2023-04-01T09:51:58;12.30;99.90
58554;DHT22;48119;53.218;6.576;2023-04-01T10:03:24;12.30;99.90
58554;DHT22;48119;53.218;6.576;2023-04-01T10:20:02;12.20;99.90
58554;DHT22;48119;53.218;6.576;2023-04-01T10:25:34;12.20;99.90
58554;DHT22;48119;53.218;6.576;2023-04-01T10:36:52;12.10;99.90
58554;DHT22;48119;53.218;6.576;2023-04-01T10:56:08;12.10;99.90
58554;DHT22;48119;53.218;6.576;2023-04-01T11:04:24;12.00;99.90
58554;DHT22;48119;53.218;6.576;2023-04-01T11:07:19;12.00;99.90
58554;DHT22;48119;53.218;6.576;2023-04-01T11:27:29;11.90;99.90
58554;DHT22;48119;53.218;6.576;2023-04-01T11:33:23;11.90;99.90
58554;DHT22;48119;53.218;6.576;2023-04-01T11:36:15;11.90;99.90
58554;DHT22;48119;53.218;6.576;2023-04-01T11:39:11;11.90;99.90
58554;DHT22;48119;53.218;6.576;2023-04-01T11:44:29;11.90;99.90
58554;DHT22;48119;53.218;6.576;2023-04-01T11:50:16;11.90;99.90
58554;DHT22;48119;53.218;6.576;2023-04-01T11:53:23;11.90;99.90
58554;DHT22;48119;53.218;6.576;2023-04-01T11:58:29;11.90;99.90
58554;DHT22;48119;53.218;6.576;2023-04-01T12:01:39;11.90;99.90
58554;DHT22;48119;53.218;6.576;2023-04-01T12:07:11;11.90;99.90
58554;DHT22;48119;53.218;6.576;2023-04-01T12:13:04;11.90;99.90
58554;DHT22;48119;53.218;6.576;2023-04-01T12:20:56;11.90;99.90
58554;DHT22;48119;53.218;6.576;2023-04-01T12:23:54;12.00;99.90
58554;DHT22;48119;53.218;6.576;2023-04-01T12:32:17;11.90;99.90
58554;DHT22;48119;53.218;6.576;2023-04-01T12:52:13;11.90;99.90
58554;DHT22;48119;53.218;6.576;2023-04-01T12:54:58;11.80;99.90
58554;DHT22;48119;53.218;6.576;2023-04-01T12:57:32;11.80;99.90
58554;DHT22;48119;53.218;6.576;2023-04-01T13:13:48;11.90;99.90
58554;DHT22;48119;53.218;6.576;2023-04-01T13:16:29;11.90;99.90
58554;DHT22;48119;53.218;6.576;2023-04-01T13:29:41;11.90;99.90
58554;DHT22;48119;53.218;6.576;2023-04-01T13:32:32;11.90;99.90
58554;DHT22;48119;53.218;6.576;2023-04-01T13:41:01;11.90;99.90
58554;DHT22;48119;53.218;6.576;2023-04-01T13:43:43;11.90;99.90
58554;DHT22;48119;53.218;6.576;2023-04-01T14:00:17;11.80;99.90
58554;DHT22;48119;53.218;6.576;2023-04-01T14:11:39;11.70;99.90
58554;DHT22;48119;53.218;6.576;2023-04-01T14:20:29;11.60;99.90
58554;DHT22;48119;53.218;6.576;2023-04-01T14:36:58;11.60;99.90
58554;DHT22;48119;53.218;6.576;2023-04-01T14:39:52;11.70;99.90
58554;DHT22;48119;53.218;6.576;2023-04-01T14:51:16;11.60;99.90
58554;DHT22;48119;53.218;6.576;2023-04-01T14:54:14;11.60;99.90
58554;DHT22;48119;53.218;6.576;2023-04-01T14:59:49;11.50;99.90
58554;DHT22;48119;53.218;6.576;2023-04-01T15:02:46;11.50;99.90
58554;DHT22;48119;53.218;6.576;2023-04-01T15:16:53;11.30;99.90
58554;DHT22;48119;53.218;6.576;2023-04-01T15:30:47;11.20;99.90
58554;DHT22;48119;53.218;6.576;2023-04-01T15:36:44;11.20;99.90
58554;DHT22;48119;53.218;6.576;2023-04-01T15:39:18;11.20;99.90
58554;DHT22;48119;53.218;6.576;2023-04-01T15:50:03;11.20;99.90
58554;DHT22;48119;53.218;6.576;2023-04-01T15:52:37;11.10;99.90
58554;DHT22;48119;53.218;6.576;2023-04-01T15:55:26;11.10;99.90
58554;DHT22;48119;53.218;6.576;2023-04-01T16:01:00;11.10;99.90
58554;DHT22;48119;53.218;6.576;2023-04-01T16:22:06;10.90;99.90
58554;DHT22;48119;53.218;6.576;2023-04-01T16:27:50;10.90;99.90
58554;DHT22;48119;53.218;6.576;2023-04-01T16:30:36;10.90;99.90
58554;DHT22;48119;53.218;6.576;2023-04-01T16:33:22;10.80;99.90
58554;DHT22;48119;53.218;6.576;2023-04-01T16:36:20;10.80;99.90
58554;DHT22;48119;53.218;6.576;2023-04-01T16:39:15;10.80;99.90
58554;DHT22;48119;53.218;6.576;2023-04-01T16:44:26;10.80;99.90
58554;DHT22;48119;53.218;6.576;2023-04-01T16:47:10;10.80;99.90
58554;DHT22;48119;53.218;6.576;2023-04-01T16:54:44;10.80;99.90
58554;DHT22;48119;53.218;6.576;2023-04-01T16:57:18;10.70;99.90
58554;DHT22;48119;53.218;6.576;2023-04-01T17:03:26;10.70;99.90
58554;DHT22;48119;53.218;6.576;2023-04-01T17:08:41;10.70;99.90
58554;DHT22;48119;53.218;6.576;2023-04-01T17:14:08;10.60;99.90
58554;DHT22;48119;53.218;6.576;2023-04-01T17:22:10;10.60;99.90
58554;DHT22;48119;53.218;6.576;2023-04-01T17:25:03;10.60;99.90
58554;DHT22;48119;53.218;6.576;2023-04-01T17:28:09;10.50;99.90
58554;DHT22;48119;53.218;6.576;2023-04-01T17:30:47;10.50;99.90
58554;DHT22;48119;53.218;6.576;2023-04-01T17:52:19;10.40;99.90
58554;DHT22;48119;53.218;6.576;2023-04-01T17:58:38;10.30;99.90
58554;DHT22;48119;53.218;6.576;2023-04-01T18:09:09;10.30;99.90
58554;DHT22;48119;53.218;6.576;2023-04-01T18:11:44;10.30;99.90
58554;DHT22;48119;53.218;6.576;2023-04-01T18:22:36;10.20;99.90
58554;DHT22;48119;53.218;6.576;2023-04-01T18:25:28;10.20;99.90
58554;DHT22;48119;53.218;6.576;2023-04-01T18:36:46;10.10;99.90
58554;DHT22;48119;53.218;6.576;2023-04-01T18:39:38;10.10;99.90
58554;DHT22;48119;53.218;6.576;2023-04-01T18:45:03;10.00;99.90
58554;DHT22;48119;53.218;6.576;2023-04-01T18:56:06;10.00;99.90
58554;DHT22;48119;53.218;6.576;2023-04-01T18:58:46;9.90;99.90
58554;DHT22;48119;53.218;6.576;2023-04-01T19:01:26;9.90;99.90
58554;DHT22;48119;53.218;6.576;2023-04-01T19:06:52;9.90;99.90
58554;DHT22;48119;53.218;6.576;2023-04-01T19:12:18;9.90;99.90
58554;DHT22;48119;53.218;6.576;2023-04-01T19:20:34;9.80;99.90
58554;DHT22;48119;53.218;6.576;2023-04-01T19:26:00;9.90;99.90
58554;DHT22;48119;53.218;6.576;2023-04-01T19:34:36;9.80;99.90
58554;DHT22;48119;53.218;6.576;2023-04-01T19:37:33;9.80;99.90
58554;DHT22;48119;53.218;6.576;2023-04-01T19:57:27;9.70;99.90
58554;DHT22;48119;53.218;6.576;2023-04-01T20:08:00;9.60;99.90
58554;DHT22;48119;53.218;6.576;2023-04-01T20:15:44;9.50;99.90
58554;DHT22;48119;53.218;6.576;2023-04-01T20:18:23;9.50;99.90
58554;DHT22;48119;53.218;6.576;2023-04-01T20:20:59;9.50;99.90
58554;DHT22;48119;53.218;6.576;2023-04-01T20:26:25;9.50;99.90
58554;DHT22;48119;53.218;6.576;2023-04-01T20:37:51;9.40;99.90
58554;DHT22;48119;53.218;6.576;2023-04-01T20:40:38;9.40;99.90
58554;DHT22;48119;53.218;6.576;2023-04-01T20:46:22;9.40;99.90
58554;DHT22;48119;53.218;6.576;2023-04-01T20:48:56;9.40;99.90
58554;DHT22;48119;53.218;6.576;2023-04-01T20:51:30;9.30;99.90
58554;DHT22;48119;53.218;6.576;2023-04-01T20:57:09;9.30;99.90
58554;DHT22;48119;53.218;6.576;2023-04-01T21:30:28;9.20;99.90
58554;DHT22;48119;53.218;6.576;2023-04-01T22:01:31;9.10;99.90
58554;DHT22;48119;53.218;6.576;2023-04-01T22:07:23;9.10;99.90
58554;DHT22;48119;53.218;6.576;2023-04-01T22:18:07;9.10;99.90
58554;DHT22;48119;53.218;6.576;2023-04-01T22:23:13;9.10;99.90
58554;DHT22;48119;53.218;6.576;2023-04-01T22:31:14;9.10;99.90
58554;DHT22;48119;53.218;6.576;2023-04-01T22:36:48;9.10;99.90
58554;DHT22;48119;53.218;6.576;2023-04-01T22:43:01;9.00;99.50
58554;DHT22;48119;53.218;6.576;2023-04-01T22:45:34;8.90;99.40
58554;DHT22;48119;53.218;6.576;2023-04-01T22:50:48;8.80;99.80
58554;DHT22;48119;53.218;6.576;2023-04-01T22:56:15;8.80;99.30
58554;DHT22;48119;53.218;6.576;2023-04-01T23:01:38;8.70;99.50
58554;DHT22;48119;53.218;6.576;2023-04-01T23:04:05;8.70;99.40
58554;DHT22;48119;53.218;6.576;2023-04-01T23:06:46;8.60;99.30
58554;DHT22;48119;53.218;6.576;2023-04-01T23:09:34;8.60;99.30
58554;DHT22;48119;53.218;6.576;2023-04-01T23:12:07;8.60;99.10
58554;DHT22;48119;53.218;6.576;2023-04-01T23:14:46;8.60;99.10
58554;DHT22;48119;53.218;6.576;2023-04-01T23:26:04;8.40;99.00
58554;DHT22;48119;53.218;6.576;2023-04-01T23:28:41;8.40;98.70
58554;DHT22;48119;53.218;6.576;2023-04-01T23:31:29;8.50;99.00
58554;DHT22;48119;53.218;6.576;2023-04-01T23:33:55;8.50;98.80
58554;DHT22;48119;53.218;6.576;2023-04-01T23:36:21;8.40;98.50
58554;DHT22;48119;53.218;6.576;2023-04-01T23:38:48;8.40;99.10
58554;DHT22;48119;53.218;6.576;2023-04-01T23:41:25;8.30;99.00
58554;DHT22;48119;53.218;6.576;2023-04-01T23:44:03;8.30;99.10
58554;DHT22;48119;53.218;6.576;2023-04-01T23:46:31;8.30;99.10
58554;DHT22;48119;53.218;6.576;2023-04-01T23:48:58;8.30;99.20
58554;DHT22;48119;53.218;6.576;2023-04-01T23:51:35;8.30;99.10
58554;DHT22;48119;53.218;6.576;2023-04-01T23:54:15;8.30;98.80
58554;DHT22;48119;53.218;6.576;2023-04-01T23:56:45;8.30;98.80
58554;DHT22;48119;53.218;6.576;2023-04-01T23:59:29;8.20;98.80
